Time;durP1;ratioP1;P1;durP2;ratioP2;P2;SDS_P1;SDS_P2;PMS_P1;PMS_P2;Temp;Humidity;BMP_temperature;BMP_pressure;BME280_temperature;BME280_humidity;BME280_pressure;Samples;Min_cycle;Max_cycle;Signal;HPM_P1;HPM_P2
2021/04/11 00:01:37;;;;;;;3.97;2.22;;;11.90;99.90;;;;;;5014462;28;20046;-94
2021/04/11 00:04:03;;;;;;;5.57;2.15;;;11.70;99.90;;;;;;5014330;28;20112;-94
2021/04/11 00:06:29;;;;;;;4.47;2.10;;;11.60;99.90;;;;;;5011488;28;20165;-94
2021/04/11 00:08:54;;;;;;;5.30;2.28;;;11.60;99.90;;;;;;5015174;28;20054;-95
2021/04/11 00:11:21;;;;;;;5.93;2.67;;;11.50;99.90;;;;;;5014315;28;20364;-95
2021/04/11 00:13:53;;;;;;;4.75;2.22;;;11.60;99.90;;;;;;5013898;28;20030;-95
2021/04/11 00:16:18;;;;;;;5.95;2.85;;;11.60;99.90;;;;;;5015094;28;20037;-94
2021/04/11 00:18:44;;;;;;;5.55;2.97;;;11.70;99.90;;;;;;5015668;28;20030;-93
2021/04/11 00:21:10;;;;;;;4.80;2.13;;;11.60;99.90;;;;;;4997876;28;20454;-94
2021/04/11 00:23:36;;;;;;;5.63;2.20;;;11.60;99.90;;;;;;5015205;28;20018;-94
2021/04/11 00:26:03;;;;;;;5.80;2.70;;;11.60;99.90;;;;;;5016006;28;20088;-94
2021/04/11 00:28:29;;;;;;;4.95;2.22;;;11.50;99.90;;;;;;4996764;28;20032;-94
2021/04/11 00:30:55;;;;;;;4.63;2.13;;;12.00;99.90;;;;;;5002275;28;20104;-95
2021/04/11 00:33:27;;;;;;;3.00;2.20;;;11.60;99.90;;;;;;5015907;28;20034;-94
2021/04/11 00:35:58;;;;;;;5.10;2.30;;;11.50;99.90;;;;;;5013159;28;20036;-95
2021/04/11 00:38:25;;;;;;;3.22;2.22;;;11.50;99.90;;;;;;5014862;28;20029;-95
2021/04/11 00:40:52;;;;;;;4.75;2.58;;;11.60;99.90;;;;;;5011025;28;20077;-94
2021/04/11 00:43:19;;;;;;;4.32;2.15;;;11.50;99.90;;;;;;5004371;28;20517;-95
2021/04/11 00:45:54;;;;;;;5.47;2.22;;;11.40;99.90;;;;;;5015205;28;20036;-95
2021/04/11 00:48:22;;;;;;;4.78;2.53;;;11.50;99.90;;;;;;5012126;28;20508;-93
2021/04/11 00:51:09;;;;;;;4.68;2.53;;;11.40;99.90;;;;;;5011962;28;20109;-96
2021/04/11 00:53:34;;;;;;;4.13;2.50;;;11.40;99.90;;;;;;5010849;28;20034;-96
2021/04/11 00:56:01;;;;;;;4.07;2.22;;;11.30;99.90;;;;;;5015886;28;20508;-95
2021/04/11 00:58:28;;;;;;;5.53;2.35;;;11.30;99.90;;;;;;5012237;28;20073;-95
2021/04/11 01:00:54;;;;;;;4.53;2.20;;;11.20;99.90;;;;;;5011245;28;20092;-95
2021/04/11 01:03:24;;;;;;;6.03;2.50;;;11.60;99.90;;;;;;4999023;28;20053;-96
2021/04/11 01:05:50;;;;;;;6.75;2.28;;;11.20;99.90;;;;;;4992103;28;20049;-95
2021/04/11 01:08:19;;;;;;;6.35;2.40;;;11.20;99.90;;;;;;5011402;28;20487;-94
2021/04/11 01:11:00;;;;;;;4.13;2.10;;;11.20;99.90;;;;;;4995468;28;20031;-95
2021/04/11 01:13:27;;;;;;;4.07;2.20;;;11.10;99.90;;;;;;5013737;28;20060;-95
2021/04/11 01:15:54;;;;;;;5.43;2.50;;;11.10;99.90;;;;;;5011988;28;20033;-94
2021/04/11 01:18:20;;;;;;;6.15;2.10;;;11.10;99.90;;;;;;4997775;28;20018;-96
2021/04/11 01:20:45;;;;;;;2.63;1.90;;;11.40;99.90;;;;;;5012795;28;20045;-93
2021/04/11 01:23:49;;;;;;;4.72;2.58;;;11.00;99.90;;;;;;5013062;28;20025;-94
2021/04/11 01:26:18;;;;;;;3.53;2.30;;;11.00;99.90;;;;;;5013798;28;20022;-95
2021/04/11 01:28:45;;;;;;;6.40;2.50;;;11.10;99.90;;;;;;4988898;28;20026;-95
2021/04/11 01:31:12;;;;;;;3.60;2.15;;;11.10;99.90;;;;;;5006989;28;20453;-96
2021/04/11 01:33:43;;;;;;;3.13;1.98;;;11.30;99.90;;;;;;5014494;28;20037;-96
2021/04/11 01:36:13;;;;;;;4.82;2.15;;;11.00;99.90;;;;;;5007745;28;20030;-95
2021/04/11 01:38:41;;;;;;;3.72;2.10;;;11.40;99.90;;;;;;4996648;28;20036;-95
2021/04/11 01:41:19;;;;;;;3.00;2.00;;;11.40;99.90;;;;;;4997138;28;20038;-95
2021/04/11 01:43:46;;;;;;;5.22;2.53;;;11.00;99.90;;;;;;5000821;28;20045;-96
2021/04/11 01:46:13;;;;;;;3.95;2.20;;;11.00;99.90;;;;;;4977928;28;20364;-95
2021/04/11 01:48:40;;;;;;;4.05;2.03;;;10.90;99.90;;;;;;4994913;28;20033;-96
2021/04/11 01:51:09;;;;;;;3.33;2.13;;;10.80;99.90;;;;;;5011426;28;20088;-94
2021/04/11 01:53:36;;;;;;;5.50;2.30;;;10.80;99.90;;;;;;5008615;28;20026;-94
2021/04/11 01:56:02;;;;;;;2.97;1.90;;;10.80;99.90;;;;;;5010678;28;20053;-96
2021/04/11 01:58:28;;;;;;;3.53;2.00;;;10.80;99.90;;;;;;5012333;28;20060;-95
2021/04/11 02:01:18;;;;;;;3.13;1.77;;;10.70;99.90;;;;;;5014234;28;20052;-95
2021/04/11 02:03:44;;;;;;;4.80;1.70;;;10.70;99.90;;;;;;5009095;28;20029;-95
2021/04/11 02:06:13;;;;;;;4.13;2.00;;;10.70;99.90;;;;;;5011909;28;20667;-95
2021/04/11 02:08:43;;;;;;;3.83;1.80;;;10.70;99.90;;;;;;4996717;28;20054;-95
2021/04/11 02:11:10;;;;;;;3.72;2.10;;;10.70;99.90;;;;;;4992981;28;20038;-96
2021/04/11 02:13:38;;;;;;;4.13;2.08;;;10.70;99.90;;;;;;5014196;28;20048;-96
2021/04/11 02:16:06;;;;;;;5.50;2.10;;;10.60;99.90;;;;;;4995688;28;20029;-95
2021/04/11 02:18:33;;;;;;;4.53;2.10;;;10.60;99.90;;;;;;5010314;28;20026;-95
2021/04/11 02:21:00;;;;;;;4.85;1.95;;;10.60;99.90;;;;;;5011089;28;20049;-96
2021/04/11 02:23:26;;;;;;;5.57;1.80;;;11.00;99.90;;;;;;4995192;28;20034;-94
2021/04/11 02:25:54;;;;;;;5.55;1.80;;;10.60;99.90;;;;;;5014330;28;20029;-95
2021/04/11 02:28:25;;;;;;;4.88;1.80;;;10.80;99.90;;;;;;5011107;28;20026;-95
2021/04/11 02:31:16;;;;;;;3.20;1.90;;;10.50;99.90;;;;;;5000435;28;20026;-95
2021/04/11 02:33:48;;;;;;;3.75;1.92;;;10.50;99.90;;;;;;5010043;28;20022;-95
2021/04/11 02:36:18;;;;;;;3.78;1.85;;;10.50;99.90;;;;;;5013240;28;21391;-95
2021/04/11 02:38:46;;;;;;;3.15;1.98;;;10.60;99.90;;;;;;4994859;28;20038;-96
2021/04/11 02:41:13;;;;;;;3.15;1.70;;;10.50;99.90;;;;;;4995396;28;20072;-95
2021/04/11 02:43:39;;;;;;;3.90;1.95;;;10.60;99.90;;;;;;5012321;28;20051;-95
2021/04/11 02:46:06;;;;;;;2.90;1.90;;;10.60;99.90;;;;;;5013245;28;20026;-94
2021/04/11 02:48:32;;;;;;;3.28;1.73;;;10.60;99.90;;;;;;5011246;28;20483;-95
2021/04/11 02:50:58;;;;;;;2.58;1.67;;;10.60;99.90;;;;;;5014112;28;20037;-95
2021/04/11 02:53:26;;;;;;;2.97;1.90;;;10.60;99.90;;;;;;4994593;28;20054;-95
2021/04/11 02:55:54;;;;;;;2.40;1.60;;;10.50;99.90;;;;;;4995390;28;20073;-94
2021/04/11 02:58:22;;;;;;;3.65;1.77;;;10.50;99.90;;;;;;5011482;28;20109;-95
2021/04/11 03:00:56;;;;;;;2.67;1.83;;;10.40;99.90;;;;;;4991798;28;20065;-95
2021/04/11 03:03:22;;;;;;;3.38;1.98;;;10.40;99.90;;;;;;4995506;28;20445;-95
2021/04/11 03:05:48;;;;;;;2.33;1.73;;;10.40;99.90;;;;;;4996666;28;20029;-96
2021/04/11 03:08:18;;;;;;;2.80;1.83;;;10.30;99.90;;;;;;4998021;28;20510;-95
2021/04/11 03:11:07;;;;;;;2.28;1.63;;;10.30;99.90;;;;;;5012071;28;20064;-95
2021/04/11 03:13:35;;;;;;;2.58;1.75;;;10.20;99.90;;;;;;4938069;29;20031;-95
2021/04/11 03:16:01;;;;;;;2.50;1.40;;;10.60;99.90;;;;;;4936260;29;20048;-94
2021/04/11 03:18:27;;;;;;;1.80;1.45;;;10.20;99.90;;;;;;4937129;29;20044;-95
2021/04/11 03:20:54;;;;;;;3.80;1.60;;;10.30;99.90;;;;;;4937874;29;20390;-94
2021/04/11 03:23:21;;;;;;;2.78;1.60;;;10.20;99.90;;;;;;4936997;29;20023;-94
2021/04/11 03:25:50;;;;;;;2.47;1.65;;;10.10;99.90;;;;;;4918761;29;20043;-95
2021/04/11 03:28:19;;;;;;;2.40;1.70;;;10.10;99.90;;;;;;4933935;29;20031;-95
2021/04/11 03:31:12;;;;;;;4.28;2.05;;;10.10;99.90;;;;;;4919900;29;20571;-95
2021/04/11 03:33:44;;;;;;;4.82;1.85;;;10.10;99.90;;;;;;4936667;29;20130;-95
2021/04/11 03:36:13;;;;;;;3.15;1.65;;;10.00;99.90;;;;;;4935235;29;20079;-94
2021/04/11 03:38:40;;;;;;;2.58;1.65;;;10.00;99.90;;;;;;4920453;29;20044;-94
2021/04/11 03:41:06;;;;;;;2.15;1.50;;;10.00;99.90;;;;;;4936446;29;20040;-95
2021/04/11 03:43:58;;;;;;;1.70;1.50;;;10.50;99.90;;;;;;4953206;28;20036;-95
2021/04/11 03:46:33;;;;;;;3.45;1.60;;;10.00;99.90;;;;;;4927940;29;20038;-95
2021/04/11 03:49:20;;;;;;;2.80;1.55;;;10.00;99.90;;;;;;4920404;29;20059;-95
2021/04/11 03:51:48;;;;;;;2.38;1.60;;;10.00;99.90;;;;;;5007145;28;20040;-95
2021/04/11 03:54:30;;;;;;;3.40;1.60;;;10.40;99.90;;;;;;5013752;28;20025;-95
2021/04/11 03:57:08;;;;;;;5.97;1.58;;;10.40;99.90;;;;;;5016063;28;20038;-95
2021/04/11 03:59:45;;;;;;;2.35;1.50;;;10.00;99.90;;;;;;5014627;28;20025;-95
2021/04/11 04:02:12;;;;;;;2.53;1.50;;;10.00;99.90;;;;;;5015621;28;20038;-95
2021/04/11 04:04:40;;;;;;;3.17;1.60;;;10.00;99.90;;;;;;5011120;28;20037;-94
2021/04/11 04:07:10;;;;;;;3.42;1.48;;;10.30;99.90;;;;;;5014416;28;20449;-95
2021/04/11 04:09:40;;;;;;;2.88;1.60;;;9.80;99.90;;;;;;5015055;28;20448;-95
2021/04/11 04:12:46;;;;;;;3.30;1.65;;;10.20;99.90;;;;;;4998994;28;20065;-94
2021/04/11 04:15:15;;;;;;;3.13;1.70;;;9.80;99.90;;;;;;5013156;28;20057;-95
2021/04/11 04:17:55;;;;;;;2.50;1.70;;;9.80;99.90;;;;;;4998934;28;20121;-95
2021/04/11 04:20:37;;;;;;;2.45;1.60;;;9.70;99.90;;;;;;5005727;28;20076;-95
2021/04/11 04:23:27;;;;;;;1.63;1.50;;;9.70;99.90;;;;;;5007605;28;20491;-96
2021/04/11 04:26:18;;;;;;;3.25;1.73;;;9.70;99.90;;;;;;4998131;28;20037;-94
2021/04/11 04:28:53;;;;;;;2.13;1.30;;;9.70;99.90;;;;;;5011882;28;20486;-95
2021/04/11 04:31:41;;;;;;;1.98;1.42;;;10.00;99.90;;;;;;5006305;28;20010;-94
2021/04/11 04:34:25;;;;;;;2.25;1.70;;;9.70;99.90;;;;;;5012690;28;20029;-95
2021/04/11 04:37:14;;;;;;;1.83;1.20;;;9.70;99.90;;;;;;5013838;28;20030;-95
2021/04/11 04:39:42;;;;;;;3.05;1.77;;;9.90;99.90;;;;;;5013944;28;20090;-95
2021/04/11 04:42:40;;;;;;;2.33;1.50;;;9.60;99.90;;;;;;5012770;28;20041;-95
2021/04/11 04:45:29;;;;;;;1.67;1.23;;;9.60;99.90;;;;;;5014454;28;20072;-95
2021/04/11 04:48:00;;;;;;;4.57;1.60;;;9.60;99.90;;;;;;5011802;28;20049;-94
2021/04/11 04:50:40;;;;;;;2.75;1.30;;;9.50;99.90;;;;;;4997758;28;20030;-96
2021/04/11 04:53:31;;;;;;;1.35;1.25;;;9.60;99.90;;;;;;5014042;28;20022;-95
2021/04/11 04:56:02;;;;;;;3.03;1.50;;;9.50;99.90;;;;;;4995814;28;20022;-95
2021/04/11 04:58:35;;;;;;;2.75;1.42;;;9.80;99.90;;;;;;5013624;28;20026;-96
2021/04/11 05:01:06;;;;;;;2.15;1.40;;;9.50;99.90;;;;;;4993958;28;20049;-95
2021/04/11 05:03:36;;;;;;;3.72;1.42;;;9.50;99.90;;;;;;5012094;28;20100;-95
2021/04/11 05:06:07;;;;;;;2.08;1.40;;;9.50;99.90;;;;;;5012021;28;20041;-95
2021/04/11 05:08:45;;;;;;;1.40;1.30;;;9.50;99.90;;;;;;4997867;28;20124;-95
2021/04/11 05:11:40;;;;;;;1.67;1.30;;;9.50;99.90;;;;;;4995095;28;20080;-95
2021/04/11 05:14:21;;;;;;;1.40;1.20;;;9.50;99.90;;;;;;5014290;28;20109;-94
2021/04/11 05:16:56;;;;;;;2.15;1.25;;;9.60;99.90;;;;;;4989871;28;20109;-95
2021/04/11 05:19:29;;;;;;;2.75;1.27;;;9.60;99.90;;;;;;5001691;28;20030;-95
2021/04/11 05:22:17;;;;;;;2.85;1.17;;;9.70;99.90;;;;;;5012732;28;20038;-95
2021/04/11 05:24:47;;;;;;;2.92;1.38;;;9.70;99.90;;;;;;5009177;28;20030;-94
2021/04/11 05:27:55;;;;;;;1.42;1.27;;;9.80;99.90;;;;;;4997440;28;20109;-95
2021/04/11 05:30:30;;;;;;;2.95;1.40;;;9.80;99.90;;;;;;4994540;28;20038;-95
2021/04/11 05:32:56;;;;;;;1.83;1.30;;;10.10;99.90;;;;;;5011533;28;20080;-95
2021/04/11 05:35:24;;;;;;;1.92;1.45;;;9.90;99.90;;;;;;5008929;28;20498;-92
2021/04/11 05:38:05;;;;;;;1.77;1.27;;;10.00;99.90;;;;;;5011541;28;20042;-95
2021/04/11 05:40:34;;;;;;;2.58;1.40;;;10.00;99.90;;;;;;4994651;28;20042;-95
2021/04/11 05:43:11;;;;;;;2.08;1.40;;;10.40;99.90;;;;;;5014594;28;20065;-93
2021/04/11 05:45:46;;;;;;;2.20;1.30;;;10.20;99.90;;;;;;5008812;28;20573;-95
2021/04/11 05:48:32;;;;;;;1.73;1.40;;;10.40;99.90;;;;;;4992430;28;20407;-96
2021/04/11 05:51:29;;;;;;;3.15;1.40;;;10.60;99.90;;;;;;5014742;28;20045;-93
2021/04/11 05:54:41;;;;;;;3.35;1.60;;;10.80;99.90;;;;;;5000850;28;20041;-95
2021/04/11 05:57:12;;;;;;;2.58;1.60;;;11.00;99.90;;;;;;5008220;28;20046;-96
2021/04/11 05:59:53;;;;;;;2.35;1.40;;;11.10;99.90;;;;;;5012067;28;20123;-94
2021/04/11 06:02:27;;;;;;;3.63;1.60;;;11.30;99.90;;;;;;5010665;28;20034;-94
2021/04/11 06:05:00;;;;;;;2.33;1.40;;;11.40;99.90;;;;;;5009469;28;20026;-92
2021/04/11 06:07:50;;;;;;;2.13;1.60;;;11.60;99.90;;;;;;5012894;28;20092;-93
2021/04/11 06:10:23;;;;;;;2.28;2.00;;;11.50;99.90;;;;;;4995565;28;20065;-96
2021/04/11 06:13:04;;;;;;;2.53;1.50;;;11.60;99.90;;;;;;4998520;28;20030;-96
2021/04/11 06:15:42;;;;;;;2.05;1.48;;;11.60;99.90;;;;;;4995129;28;20033;-94
2021/04/11 06:18:08;;;;;;;2.13;1.60;;;11.80;99.90;;;;;;5011346;28;20037;-94
2021/04/11 06:20:36;;;;;;;2.17;1.42;;;11.90;99.90;;;;;;5010760;28;20049;-94
2021/04/11 06:23:29;;;;;;;3.10;1.50;;;12.00;99.90;;;;;;4990619;28;20041;-94
2021/04/11 06:26:13;;;;;;;1.92;1.63;;;12.00;99.90;;;;;;4996169;28;20029;-95
2021/04/11 06:28:51;;;;;;;3.05;1.60;;;12.30;99.90;;;;;;5009982;28;20080;-95
2021/04/11 06:31:19;;;;;;;4.40;1.52;;;12.50;99.90;;;;;;5008300;28;20010;-94
2021/04/11 06:33:54;;;;;;;3.10;1.30;;;12.70;99.90;;;;;;4988824;28;20495;-94
2021/04/11 06:36:29;;;;;;;2.75;1.23;;;13.00;99.90;;;;;;5001240;28;20022;-95
2021/04/11 06:39:25;;;;;;;3.97;1.58;;;13.00;99.90;;;;;;4991088;28;20117;-95
2021/04/11 06:42:21;;;;;;;2.83;1.52;;;13.10;99.90;;;;;;5008795;28;20076;-94
2021/04/11 06:44:55;;;;;;;2.13;1.30;;;13.00;99.90;;;;;;5008277;28;20440;-94
2021/04/11 06:48:02;;;;;;;1.38;1.13;;;13.10;99.90;;;;;;5012682;28;20025;-88
2021/04/11 06:50:38;;;;;;;2.08;1.35;;;13.20;99.90;;;;;;5015827;28;20076;-96
2021/04/11 06:53:13;;;;;;;1.83;1.35;;;13.20;99.90;;;;;;5017154;28;20036;-94
2021/04/11 06:56:09;;;;;;;1.75;1.20;;;13.30;99.90;;;;;;5017435;28;20031;-96
2021/04/11 07:02:03;;;;;;;1.85;1.10;;;13.20;99.90;;;;;;3728181;23;20115;-94
2021/04/11 07:47:04;;;;;;;1.83;0.80;;;13.80;99.90;;;;;;5304228;23;20050;-96
2021/04/11 07:49:40;;;;;;;0.85;0.60;;;14.00;99.90;;;;;;4996175;28;20054;-96
2021/04/11 07:52:14;;;;;;;2.00;0.80;;;13.80;99.90;;;;;;4998173;28;20026;-96
2021/04/11 07:55:06;;;;;;;0.70;0.63;;;14.00;99.90;;;;;;5193299;23;20116;-96
2021/04/11 07:58:14;;;;;;;1.13;0.80;;;14.10;99.90;;;;;;5020012;28;20014;-96
2021/04/11 08:03:54;;;;;;;1.33;0.68;;;14.30;99.90;;;;;;5066687;23;20058;-96
2021/04/11 08:06:35;;;;;;;1.02;0.70;;;14.30;99.90;;;;;;5033199;28;20006;-96
2021/04/11 08:28:12;;;;;;;1.30;0.90;;;13.90;99.90;;;;;;5034544;28;20042;-96
2021/04/11 08:31:21;;;;;;;1.25;0.80;;;14.30;99.90;;;;;;5162361;23;20018;-96
2021/04/11 08:42:01;;;;;;;1.00;0.70;;;15.00;99.90;;;;;;5838008;23;20108;-89
2021/04/11 08:44:58;;;;;;;1.10;0.98;;;15.30;99.90;;;;;;5568805;23;20048;-96
2021/04/11 08:48:02;;;;;;;1.92;0.80;;;15.50;99.90;;;;;;5036622;28;20010;-96
2021/04/11 08:50:39;;;;;;;2.05;0.82;;;15.60;99.90;;;;;;4942884;29;20035;-96
2021/04/11 08:53:08;;;;;;;1.15;0.80;;;16.10;99.90;;;;;;4956580;29;20031;-95
2021/04/11 08:55:51;;;;;;;1.15;0.70;;;16.20;99.90;;;;;;4952386;29;20040;-96
2021/04/11 08:58:45;;;;;;;2.30;0.50;;;16.50;99.90;;;;;;4954158;29;20027;-96
2021/04/11 10:14:25;;;;;;;1.38;0.50;;;16.80;99.90;;;;;;5558809;23;20302;-96
2021/04/11 10:17:05;;;;;;;1.42;0.50;;;16.90;99.90;;;;;;4991023;28;20038;-96
2021/04/11 10:19:37;;;;;;;0.70;0.50;;;16.60;99.90;;;;;;5021587;28;20040;-96
2021/04/11 10:22:40;;;;;;;0.98;0.40;;;16.80;99.90;;;;;;5016614;28;20399;-96
2021/04/11 10:25:18;;;;;;;1.15;0.55;;;16.40;99.90;;;;;;4995142;28;20121;-95
2021/04/11 10:28:12;;;;;;;0.50;0.50;;;16.20;99.90;;;;;;5011150;28;20036;-96
2021/04/11 10:30:39;;;;;;;1.85;0.50;;;16.40;99.90;;;;;;5012557;28;20040;-95
2021/04/11 10:33:23;;;;;;;0.60;0.60;;;16.80;99.90;;;;;;5013940;28;20109;-95
2021/04/11 10:36:01;;;;;;;0.40;0.30;;;16.90;99.90;;;;;;5000736;28;20017;-94
2021/04/11 10:38:42;;;;;;;1.05;0.60;;;16.70;99.90;;;;;;5268825;23;20058;-96
2021/04/11 10:41:25;;;;;;;1.08;0.60;;;16.60;99.90;;;;;;5015337;28;20566;-96
2021/04/11 10:44:00;;;;;;;0.50;0.45;;;16.80;99.90;;;;;;4999762;28;20032;-95
2021/04/11 10:46:56;;;;;;;3.30;0.50;;;16.70;99.90;;;;;;5027964;28;20105;-96
2021/04/11 10:49:41;;;;;;;0.95;0.50;;;16.80;99.90;;;;;;5000345;28;20037;-96
2021/04/11 10:52:40;;;;;;;2.40;0.40;;;17.10;99.90;;;;;;5084658;23;20662;-94
2021/04/11 10:55:47;;;;;;;1.27;0.50;;;17.20;99.90;;;;;;4995905;28;20085;-95
2021/04/11 10:58:22;;;;;;;0.38;0.38;;;17.80;99.90;;;;;;5148956;23;20057;-95
2021/04/11 11:01:15;;;;;;;0.43;0.43;;;17.60;99.90;;;;;;5017191;28;20038;-96
2021/04/11 11:03:40;;;;;;;0.90;0.60;;;18.20;99.90;;;;;;5025905;28;20037;-96
2021/04/11 11:06:26;;;;;;;1.55;0.55;;;17.70;99.90;;;;;;5428474;23;20054;-96
2021/04/11 11:09:15;;;;;;;0.47;0.47;;;18.20;99.90;;;;;;5018320;28;20022;-93
2021/04/11 11:12:03;;;;;;;0.60;0.60;;;17.80;99.90;;;;;;5017368;28;20085;-96
2021/04/11 11:14:55;;;;;;;2.83;0.70;;;17.90;99.90;;;;;;5004243;28;20053;-90
2021/04/11 11:17:31;;;;;;;0.68;0.47;;;18.20;99.90;;;;;;5003952;28;20026;-88
2021/04/11 11:20:08;;;;;;;0.40;0.40;;;18.10;99.90;;;;;;5013174;28;20034;-95
2021/04/11 11:22:53;;;;;;;0.85;0.60;;;17.90;99.90;;;;;;5013248;28;20037;-96
2021/04/11 11:25:28;;;;;;;3.22;0.55;;;17.50;99.90;;;;;;5010907;28;20030;-94
2021/04/11 11:28:08;;;;;;;0.82;0.50;;;17.50;99.90;;;;;;5013916;28;20026;-96
2021/04/11 11:31:01;;;;;;;0.90;0.50;;;17.40;99.90;;;;;;4999388;28;20030;-94
2021/04/11 11:33:45;;;;;;;0.73;0.40;;;17.00;99.90;;;;;;5017149;28;20104;-96
2021/04/11 11:36:32;;;;;;;0.70;0.50;;;17.10;99.90;;;;;;5013991;28;20030;-94
2021/04/11 11:39:03;;;;;;;0.60;0.40;;;17.60;99.90;;;;;;5021644;28;20029;-91
2021/04/11 11:41:35;;;;;;;0.68;0.50;;;18.60;99.90;;;;;;5020069;28;20057;-95
2021/04/11 11:44:27;;;;;;;0.65;0.43;;;18.90;99.90;;;;;;4998866;28;20026;-94
2021/04/11 11:47:25;;;;;;;2.13;0.40;;;18.80;99.90;;;;;;5000867;28;20144;-93
2021/04/11 11:50:06;;;;;;;0.60;0.45;;;20.30;99.90;;;;;;4981545;28;20068;-91
2021/04/11 11:53:21;;;;;;;0.57;0.50;;;19.10;99.90;;;;;;5009935;28;20029;-92
2021/04/11 11:56:26;;;;;;;0.77;0.45;;;19.10;99.90;;;;;;4999581;28;20058;-94
2021/04/11 11:59:06;;;;;;;0.70;0.38;;;19.00;99.90;;;;;;4999959;28;20018;-92
2021/04/11 12:01:44;;;;;;;0.38;0.38;;;18.80;99.90;;;;;;5016313;28;20034;-94
2021/04/11 12:04:33;;;;;;;1.23;0.70;;;18.40;99.90;;;;;;5013766;28;20034;-94
2021/04/11 12:07:09;;;;;;;1.00;0.40;;;18.20;99.90;;;;;;5013976;28;20104;-94
2021/04/11 12:09:43;;;;;;;1.45;0.60;;;18.60;99.90;;;;;;5014666;28;20021;-92
2021/04/11 12:12:24;;;;;;;0.57;0.57;;;18.70;99.90;;;;;;5015443;28;20022;-94
2021/04/11 12:15:08;;;;;;;1.58;0.60;;;18.60;99.90;;;;;;5013458;28;20060;-93
2021/04/11 12:18:02;;;;;;;0.90;0.70;;;18.40;99.90;;;;;;5016212;28;20022;-96
2021/04/11 12:21:00;;;;;;;1.10;0.70;;;18.00;99.90;;;;;;4998098;28;20061;-93
2021/04/11 12:23:28;;;;;;;0.63;0.60;;;17.90;99.90;;;;;;5013913;28;20029;-94
2021/04/11 12:26:13;;;;;;;0.80;0.60;;;17.70;99.90;;;;;;5014271;28;20029;-94
2021/04/11 12:28:41;;;;;;;0.80;0.60;;;17.70;99.90;;;;;;5016225;28;20026;-95
2021/04/11 12:31:30;;;;;;;0.65;0.50;;;17.50;99.90;;;;;;5015639;28;20108;-93
2021/04/11 12:34:16;;;;;;;3.38;0.85;;;17.30;99.90;;;;;;5005217;28;20046;-93
2021/04/11 12:36:45;;;;;;;1.77;0.60;;;17.30;99.90;;;;;;5013827;28;20028;-94
2021/04/11 12:39:21;;;;;;;3.25;0.70;;;17.20;99.90;;;;;;5005406;28;20029;-94
2021/04/11 12:42:09;;;;;;;2.72;0.60;;;17.20;99.90;;;;;;5004407;28;20398;-93
2021/04/11 12:44:46;;;;;;;0.50;0.50;;;17.70;99.90;;;;;;4998422;28;20058;-93
2021/04/11 12:47:17;;;;;;;2.88;0.40;;;18.10;99.90;;;;;;5001417;28;20021;-93
2021/04/11 12:49:49;;;;;;;1.40;0.77;;;17.80;99.90;;;;;;5014290;28;20518;-94
2021/04/11 12:52:55;;;;;;;0.65;0.57;;;17.40;99.90;;;;;;5015655;28;20101;-95
2021/04/11 12:55:30;;;;;;;0.55;0.43;;;17.90;99.90;;;;;;5008824;28;20022;-96
2021/04/11 12:58:03;;;;;;;0.60;0.57;;;17.70;99.90;;;;;;5011621;28;20029;-93
2021/04/11 13:00:53;;;;;;;4.90;0.60;;;18.00;99.90;;;;;;4994835;28;20037;-93
2021/04/11 13:03:36;;;;;;;0.98;0.60;;;17.80;99.90;;;;;;4996715;28;20091;-93
2021/04/11 13:06:28;;;;;;;3.15;0.50;;;17.60;99.90;;;;;;5012866;28;20058;-94
2021/04/11 13:09:17;;;;;;;0.60;0.60;;;17.80;99.90;;;;;;5004083;28;20101;-94
2021/04/11 13:12:07;;;;;;;0.63;0.50;;;18.20;99.90;;;;;;5014329;28;20026;-92
2021/04/11 13:14:53;;;;;;;0.60;0.50;;;17.90;99.90;;;;;;5013835;28;20022;-94
2021/04/11 13:17:35;;;;;;;0.50;0.50;;;17.50;99.90;;;;;;5008276;28;20030;-93
2021/04/11 13:20:10;;;;;;;1.40;0.60;;;17.40;99.90;;;;;;4995766;28;20138;-91
2021/04/11 13:23:12;;;;;;;2.15;0.60;;;17.30;99.90;;;;;;4996264;28;20037;-94
2021/04/11 13:25:59;;;;;;;1.50;0.50;;;17.40;99.90;;;;;;4934789;29;20034;-89
2021/04/11 13:28:39;;;;;;;0.68;0.50;;;17.50;99.90;;;;;;4923999;29;20035;-93
2021/04/11 13:31:09;;;;;;;1.40;0.50;;;17.30;99.90;;;;;;4934230;29;20079;-94
2021/04/11 13:34:03;;;;;;;0.60;0.60;;;17.30;99.90;;;;;;4935675;29;20032;-94
2021/04/11 13:36:39;;;;;;;0.55;0.55;;;17.10;99.90;;;;;;4919449;29;20057;-93
2021/04/11 13:39:18;;;;;;;1.27;0.68;;;17.00;99.90;;;;;;4932880;29;20517;-94
2021/04/11 13:41:54;;;;;;;1.67;0.60;;;16.90;99.90;;;;;;4920087;29;20071;-94
2021/04/11 13:44:45;;;;;;;1.08;0.60;;;16.90;99.90;;;;;;4927153;29;20031;-92
2021/04/11 13:47:19;;;;;;;0.70;0.70;;;17.00;99.90;;;;;;4922705;29;20059;-93
2021/04/11 13:49:59;;;;;;;0.80;0.70;;;17.20;99.90;;;;;;4921086;29;20032;-94
2021/04/11 13:52:57;;;;;;;0.60;0.60;;;17.50;99.90;;;;;;4934433;29;20123;-94
2021/04/11 13:55:46;;;;;;;0.55;0.55;;;17.40;99.90;;;;;;4916592;29;20489;-94
2021/04/11 13:58:30;;;;;;;0.47;0.43;;;17.90;99.90;;;;;;4915222;29;20023;-93
2021/04/11 14:01:08;;;;;;;0.65;0.65;;;17.70;99.90;;;;;;4934034;29;20051;-95
2021/04/11 14:03:39;;;;;;;1.13;0.60;;;17.50;99.90;;;;;;5001809;28;20034;-93
2021/04/11 14:06:11;;;;;;;0.43;0.43;;;17.60;99.90;;;;;;4993719;28;20062;-93
2021/04/11 14:08:55;;;;;;;1.25;0.70;;;17.30;99.90;;;;;;5002970;28;20033;-94
2021/04/11 14:11:29;;;;;;;1.65;0.50;;;17.40;99.90;;;;;;5006148;28;20068;-93
2021/04/11 14:13:58;;;;;;;0.82;0.70;;;17.20;99.90;;;;;;5010255;28;20034;-93
2021/04/11 14:16:36;;;;;;;1.05;0.60;;;17.30;99.90;;;;;;5011601;28;20493;-93
2021/04/11 14:19:26;;;;;;;1.10;0.68;;;17.50;99.90;;;;;;5012309;28;20030;-92
2021/04/11 14:22:18;;;;;;;1.00;0.70;;;17.60;99.90;;;;;;5010315;28;20045;-94
2021/04/11 14:25:06;;;;;;;0.75;0.70;;;17.50;99.90;;;;;;4992077;28;20514;-93
2021/04/11 14:27:40;;;;;;;0.60;0.60;;;17.50;99.90;;;;;;5005309;28;20037;-93
2021/04/11 14:30:12;;;;;;;1.05;0.80;;;17.20;99.90;;;;;;5009359;28;20025;-94
2021/04/11 14:32:40;;;;;;;1.23;0.80;;;18.40;99.90;;;;;;5012330;28;20084;-95
2021/04/11 14:35:18;;;;;;;2.20;1.00;;;17.70;99.90;;;;;;5014283;28;20069;-96
2021/04/11 14:37:55;;;;;;;1.77;0.90;;;17.90;99.90;;;;;;4994198;28;20037;-95
2021/04/11 14:40:24;;;;;;;2.47;1.08;;;18.10;99.90;;;;;;5013462;28;20124;-94
2021/04/11 14:43:10;;;;;;;1.65;0.90;;;17.80;99.90;;;;;;5010050;28;20113;-94
2021/04/11 14:45:53;;;;;;;2.28;1.10;;;17.70;99.90;;;;;;5009924;28;20030;-94
2021/04/11 14:48:30;;;;;;;1.85;1.13;;;17.20;99.90;;;;;;4995703;28;20079;-95
2021/04/11 14:51:23;;;;;;;1.88;1.17;;;17.10;99.90;;;;;;5012944;28;20406;-93
2021/04/11 14:53:59;;;;;;;2.05;0.95;;;17.10;99.90;;;;;;5010298;28;20049;-95
2021/04/11 14:56:51;;;;;;;1.30;1.00;;;16.80;99.90;;;;;;5013348;28;20026;-94
2021/04/11 14:59:25;;;;;;;1.65;1.10;;;17.00;99.90;;;;;;5011128;28;20113;-94
2021/04/11 15:02:01;;;;;;;1.27;1.17;;;16.90;99.90;;;;;;4994028;28;20117;-94
2021/04/11 15:04:27;;;;;;;1.60;1.10;;;17.00;99.90;;;;;;4998255;28;20077;-94
2021/04/11 15:07:18;;;;;;;2.10;1.10;;;17.10;99.90;;;;;;5014278;28;20129;-94
2021/04/11 15:10:01;;;;;;;2.45;1.00;;;17.10;99.90;;;;;;5014074;28;20041;-95
2021/04/11 15:12:52;;;;;;;1.67;1.23;;;17.10;99.90;;;;;;5013255;28;20022;-94
2021/04/11 15:15:24;;;;;;;1.70;1.17;;;16.80;99.90;;;;;;5011536;28;20041;-93
2021/04/11 15:18:07;;;;;;;1.60;1.00;;;16.70;99.90;;;;;;5017130;28;20022;-95
2021/04/11 15:20:37;;;;;;;2.45;1.13;;;16.60;99.90;;;;;;5015422;28;20037;-94
2021/04/11 15:23:25;;;;;;;4.20;1.40;;;16.50;99.90;;;;;;5016874;28;20087;-94
2021/04/11 15:26:09;;;;;;;1.48;1.02;;;16.60;99.90;;;;;;5004789;28;20149;-95
2021/04/11 15:28:54;;;;;;;2.38;1.15;;;16.50;99.90;;;;;;5015588;28;20116;-93
2021/04/11 15:31:34;;;;;;;2.17;1.10;;;16.30;99.90;;;;;;4999444;28;20101;-95
2021/04/11 15:33:59;;;;;;;2.20;1.10;;;16.20;99.90;;;;;;5015872;28;20029;-94
2021/04/11 15:36:58;;;;;;;4.35;1.20;;;16.20;99.90;;;;;;5016205;28;20048;-94
2021/04/11 15:39:43;;;;;;;1.17;0.98;;;16.00;99.90;;;;;;5009804;28;20564;-94
2021/04/11 15:42:21;;;;;;;1.85;1.10;;;16.20;99.90;;;;;;4998978;28;20037;-93
2021/04/11 15:45:12;;;;;;;3.55;1.23;;;16.00;99.90;;;;;;4997878;28;20034;-94
2021/04/11 15:47:55;;;;;;;2.65;1.20;;;15.90;99.90;;;;;;5016040;28;20026;-94
2021/04/11 15:50:29;;;;;;;2.53;1.40;;;15.90;99.90;;;;;;5014441;28;20029;-94
2021/04/11 15:53:21;;;;;;;1.85;1.15;;;15.80;99.90;;;;;;4997862;28;20030;-95
2021/04/11 15:56:05;;;;;;;3.05;1.20;;;15.70;99.90;;;;;;4918374;29;20036;-95
2021/04/11 15:58:38;;;;;;;1.48;1.20;;;15.50;99.90;;;;;;4935384;29;20024;-94
2021/04/11 16:01:24;;;;;;;1.55;1.15;;;15.50;99.90;;;;;;4936579;29;20047;-94
2021/04/11 16:03:52;;;;;;;1.50;1.20;;;15.30;99.90;;;;;;4935800;29;20031;-94
2021/04/11 16:06:29;;;;;;;1.30;1.20;;;15.40;99.90;;;;;;4931857;29;20039;-94
2021/04/11 16:09:12;;;;;;;1.33;1.20;;;15.30;99.90;;;;;;4936090;29;20039;-93
2021/04/11 16:11:40;;;;;;;2.97;1.48;;;15.30;99.90;;;;;;4936889;29;20385;-95
2021/04/11 16:14:24;;;;;;;3.78;2.13;;;15.10;99.90;;;;;;4931974;29;20059;-94